sensor_id;sensor_type;location;lat;lon;timestamp;P1;durP1;ratioP1;P2;durP2;ratioP2
72524;SDS011;60547;48.502;8.996;2022-07-22T00:01:28;11.98;;;4.95;;
72524;SDS011;60547;48.502;8.996;2022-07-22T00:03:53;7.45;;;5.22;;
72524;SDS011;60547;48.502;8.996;2022-07-22T00:06:18;8.50;;;5.47;;
72524;SDS011;60547;48.502;8.996;2022-07-22T00:08:44;7.43;;;4.72;;
72524;SDS011;60547;48.502;8.996;2022-07-22T00:11:09;7.75;;;5.30;;
72524;SDS011;60547;48.502;8.996;2022-07-22T00:13:35;9.13;;;4.95;;
72524;SDS011;60547;48.502;8.996;2022-07-22T00:16:00;7.03;;;4.95;;
72524;SDS011;60547;48.502;8.996;2022-07-22T00:18:25;10.27;;;5.65;;
72524;SDS011;60547;48.502;8.996;2022-07-22T00:20:51;7.38;;;4.72;;
72524;SDS011;60547;48.502;8.996;2022-07-22T00:23:16;7.80;;;4.90;;
72524;SDS011;60547;48.502;8.996;2022-07-22T00:25:42;8.20;;;4.95;;
72524;SDS011;60547;48.502;8.996;2022-07-22T00:28:08;8.13;;;5.50;;
72524;SDS011;60547;48.502;8.996;2022-07-22T00:30:33;8.32;;;5.10;;
72524;SDS011;60547;48.502;8.996;2022-07-22T00:32:59;7.53;;;5.18;;
72524;SDS011;60547;48.502;8.996;2022-07-22T00:35:24;6.95;;;4.75;;
72524;SDS011;60547;48.502;8.996;2022-07-22T00:37:50;6.50;;;4.88;;
72524;SDS011;60547;48.502;8.996;2022-07-22T00:40:15;7.65;;;4.82;;
72524;SDS011;60547;48.502;8.996;2022-07-22T00:42:41;7.40;;;4.93;;
72524;SDS011;60547;48.502;8.996;2022-07-22T00:45:08;8.20;;;5.00;;
72524;SDS011;60547;48.502;8.996;2022-07-22T00:47:34;7.80;;;4.65;;
72524;SDS011;60547;48.502;8.996;2022-07-22T00:50:00;7.13;;;4.80;;
72524;SDS011;60547;48.502;8.996;2022-07-22T00:52:26;6.50;;;5.03;;
72524;SDS011;60547;48.502;8.996;2022-07-22T00:54:52;5.90;;;4.47;;
72524;SDS011;60547;48.502;8.996;2022-07-22T00:57:17;8.07;;;5.05;;
72524;SDS011;60547;48.502;8.996;2022-07-22T00:59:43;7.15;;;4.88;;
72524;SDS011;60547;48.502;8.996;2022-07-22T01:02:09;8.88;;;5.38;;
72524;SDS011;60547;48.502;8.996;2022-07-22T01:04:35;6.85;;;4.80;;
72524;SDS011;60547;48.502;8.996;2022-07-22T01:07:01;7.88;;;4.90;;
72524;SDS011;60547;48.502;8.996;2022-07-22T01:09:26;8.15;;;4.78;;
72524;SDS011;60547;48.502;8.996;2022-07-22T01:11:52;9.48;;;5.88;;
72524;SDS011;60547;48.502;8.996;2022-07-22T01:14:17;7.43;;;5.25;;
72524;SDS011;60547;48.502;8.996;2022-07-22T01:16:42;8.02;;;5.65;;
72524;SDS011;60547;48.502;8.996;2022-07-22T01:19:08;8.18;;;4.97;;
72524;SDS011;60547;48.502;8.996;2022-07-22T01:21:35;8.27;;;5.47;;
72524;SDS011;60547;48.502;8.996;2022-07-22T01:24:00;7.93;;;5.43;;
72524;SDS011;60547;48.502;8.996;2022-07-22T01:26:26;8.50;;;5.35;;
72524;SDS011;60547;48.502;8.996;2022-07-22T01:28:52;7.60;;;5.32;;
72524;SDS011;60547;48.502;8.996;2022-07-22T01:31:17;9.27;;;4.68;;
72524;SDS011;60547;48.502;8.996;2022-07-22T01:33:42;7.68;;;5.32;;
72524;SDS011;60547;48.502;8.996;2022-07-22T01:36:08;7.63;;;5.05;;
72524;SDS011;60547;48.502;8.996;2022-07-22T01:38:34;8.13;;;5.40;;
72524;SDS011;60547;48.502;8.996;2022-07-22T01:40:59;7.63;;;5.50;;
72524;SDS011;60547;48.502;8.996;2022-07-22T01:43:25;8.13;;;5.13;;
72524;SDS011;60547;48.502;8.996;2022-07-22T01:45:51;8.55;;;4.88;;
72524;SDS011;60547;48.502;8.996;2022-07-22T01:48:18;7.35;;;4.90;;
72524;SDS011;60547;48.502;8.996;2022-07-22T01:50:44;7.07;;;5.05;;
72524;SDS011;60547;48.502;8.996;2022-07-22T01:53:10;9.82;;;5.22;;
72524;SDS011;60547;48.502;8.996;2022-07-22T01:55:35;7.70;;;4.97;;
72524;SDS011;60547;48.502;8.996;2022-07-22T01:58:01;7.13;;;5.22;;
72524;SDS011;60547;48.502;8.996;2022-07-22T02:00:29;8.65;;;5.43;;
72524;SDS011;60547;48.502;8.996;2022-07-22T02:02:55;7.63;;;5.18;;
72524;SDS011;60547;48.502;8.996;2022-07-22T02:05:20;10.88;;;5.88;;
72524;SDS011;60547;48.502;8.996;2022-07-22T02:07:45;8.30;;;5.68;;
72524;SDS011;60547;48.502;8.996;2022-07-22T02:10:11;7.80;;;5.45;;
72524;SDS011;60547;48.502;8.996;2022-07-22T02:12:37;7.00;;;5.13;;
72524;SDS011;60547;48.502;8.996;2022-07-22T02:15:03;8.35;;;5.40;;
72524;SDS011;60547;48.502;8.996;2022-07-22T02:17:29;8.63;;;5.50;;
72524;SDS011;60547;48.502;8.996;2022-07-22T02:19:54;9.35;;;5.25;;
72524;SDS011;60547;48.502;8.996;2022-07-22T02:22:20;7.95;;;5.82;;
72524;SDS011;60547;48.502;8.996;2022-07-22T02:24:45;7.32;;;5.22;;
72524;SDS011;60547;48.502;8.996;2022-07-22T02:27:12;6.80;;;5.18;;
72524;SDS011;60547;48.502;8.996;2022-07-22T02:29:38;11.10;;;5.45;;
72524;SDS011;60547;48.502;8.996;2022-07-22T02:32:03;8.70;;;5.90;;
72524;SDS011;60547;48.502;8.996;2022-07-22T02:34:29;8.30;;;5.57;;
72524;SDS011;60547;48.502;8.996;2022-07-22T02:36:55;7.97;;;5.65;;
72524;SDS011;60547;48.502;8.996;2022-07-22T02:39:20;10.60;;;5.88;;
72524;SDS011;60547;48.502;8.996;2022-07-22T02:41:45;9.18;;;6.13;;
72524;SDS011;60547;48.502;8.996;2022-07-22T02:44:11;8.93;;;5.97;;
72524;SDS011;60547;48.502;8.996;2022-07-22T02:46:36;9.93;;;5.28;;
72524;SDS011;60547;48.502;8.996;2022-07-22T02:49:02;10.02;;;5.22;;
72524;SDS011;60547;48.502;8.996;2022-07-22T02:51:29;10.50;;;5.57;;
72524;SDS011;60547;48.502;8.996;2022-07-22T02:53:55;9.30;;;5.10;;
72524;SDS011;60547;48.502;8.996;2022-07-22T02:56:20;8.57;;;5.65;;
72524;SDS011;60547;48.502;8.996;2022-07-22T02:58:46;8.88;;;5.70;;
72524;SDS011;60547;48.502;8.996;2022-07-22T03:01:12;7.53;;;5.40;;
72524;SDS011;60547;48.502;8.996;2022-07-22T03:03:37;7.80;;;5.32;;
72524;SDS011;60547;48.502;8.996;2022-07-22T03:06:04;8.82;;;5.50;;
72524;SDS011;60547;48.502;8.996;2022-07-22T03:08:30;9.93;;;5.35;;
72524;SDS011;60547;48.502;8.996;2022-07-22T03:10:55;7.38;;;5.25;;
72524;SDS011;60547;48.502;8.996;2022-07-22T03:13:21;7.50;;;5.50;;
72524;SDS011;60547;48.502;8.996;2022-07-22T03:15:46;8.23;;;5.57;;
72524;SDS011;60547;48.502;8.996;2022-07-22T03:18:13;10.70;;;5.82;;
72524;SDS011;60547;48.502;8.996;2022-07-22T03:20:39;7.40;;;5.55;;
72524;SDS011;60547;48.502;8.996;2022-07-22T03:23:05;7.97;;;6.13;;
72524;SDS011;60547;48.502;8.996;2022-07-22T03:25:30;8.45;;;5.93;;
72524;SDS011;60547;48.502;8.996;2022-07-22T03:27:57;10.05;;;5.43;;
72524;SDS011;60547;48.502;8.996;2022-07-22T03:30:23;8.43;;;5.93;;
72524;SDS011;60547;48.502;8.996;2022-07-22T03:32:48;7.32;;;4.90;;
72524;SDS011;60547;48.502;8.996;2022-07-22T03:35:14;7.47;;;5.32;;
72524;SDS011;60547;48.502;8.996;2022-07-22T03:37:41;8.07;;;5.40;;
72524;SDS011;60547;48.502;8.996;2022-07-22T03:40:07;7.78;;;5.20;;
72524;SDS011;60547;48.502;8.996;2022-07-22T03:42:34;8.18;;;5.35;;
72524;SDS011;60547;48.502;8.996;2022-07-22T03:44:59;8.60;;;5.13;;
72524;SDS011;60547;48.502;8.996;2022-07-22T03:47:25;7.30;;;5.63;;
72524;SDS011;60547;48.502;8.996;2022-07-22T03:49:50;8.95;;;6.45;;
72524;SDS011;60547;48.502;8.996;2022-07-22T03:52:16;8.38;;;5.55;;
72524;SDS011;60547;48.502;8.996;2022-07-22T03:54:42;7.80;;;5.15;;
72524;SDS011;60547;48.502;8.996;2022-07-22T03:57:08;9.70;;;5.97;;
72524;SDS011;60547;48.502;8.996;2022-07-22T03:59:34;9.32;;;6.00;;
72524;SDS011;60547;48.502;8.996;2022-07-22T04:02:00;9.30;;;5.95;;
72524;SDS011;60547;48.502;8.996;2022-07-22T04:04:25;9.35;;;5.00;;
72524;SDS011;60547;48.502;8.996;2022-07-22T04:06:51;9.63;;;5.72;;
72524;SDS011;60547;48.502;8.996;2022-07-22T04:09:17;8.93;;;5.70;;
72524;SDS011;60547;48.502;8.996;2022-07-22T04:11:43;7.53;;;5.20;;
72524;SDS011;60547;48.502;8.996;2022-07-22T04:14:08;9.27;;;5.25;;
72524;SDS011;60547;48.502;8.996;2022-07-22T04:16:34;9.27;;;5.57;;
72524;SDS011;60547;48.502;8.996;2022-07-22T04:19:00;9.60;;;5.65;;
72524;SDS011;60547;48.502;8.996;2022-07-22T04:21:26;8.82;;;5.82;;
72524;SDS011;60547;48.502;8.996;2022-07-22T04:23:52;10.57;;;6.30;;
72524;SDS011;60547;48.502;8.996;2022-07-22T04:26:18;7.78;;;5.85;;
72524;SDS011;60547;48.502;8.996;2022-07-22T04:28:44;8.48;;;5.90;;
72524;SDS011;60547;48.502;8.996;2022-07-22T04:31:09;8.15;;;5.78;;
72524;SDS011;60547;48.502;8.996;2022-07-22T04:33:35;9.07;;;5.85;;
72524;SDS011;60547;48.502;8.996;2022-07-22T04:36:00;9.98;;;5.72;;
72524;SDS011;60547;48.502;8.996;2022-07-22T04:38:25;8.30;;;5.72;;
72524;SDS011;60547;48.502;8.996;2022-07-22T04:40:51;9.32;;;6.05;;
72524;SDS011;60547;48.502;8.996;2022-07-22T04:43:17;8.52;;;5.75;;
72524;SDS011;60547;48.502;8.996;2022-07-22T04:45:42;8.77;;;6.00;;
72524;SDS011;60547;48.502;8.996;2022-07-22T04:48:08;8.95;;;5.57;;
72524;SDS011;60547;48.502;8.996;2022-07-22T04:50:35;9.20;;;5.63;;
72524;SDS011;60547;48.502;8.996;2022-07-22T04:53:01;7.40;;;5.28;;
72524;SDS011;60547;48.502;8.996;2022-07-22T04:55:26;7.32;;;5.25;;
72524;SDS011;60547;48.502;8.996;2022-07-22T04:57:52;8.65;;;5.53;;
72524;SDS011;60547;48.502;8.996;2022-07-22T05:00:17;9.50;;;5.43;;
72524;SDS011;60547;48.502;8.996;2022-07-22T05:02:43;9.07;;;6.20;;
72524;SDS011;60547;48.502;8.996;2022-07-22T05:05:08;7.88;;;5.80;;
72524;SDS011;60547;48.502;8.996;2022-07-22T05:07:34;8.13;;;5.72;;
72524;SDS011;60547;48.502;8.996;2022-07-22T05:09:59;10.98;;;6.50;;
72524;SDS011;60547;48.502;8.996;2022-07-22T05:12:24;8.45;;;5.90;;
72524;SDS011;60547;48.502;8.996;2022-07-22T05:14:50;7.20;;;5.20;;
72524;SDS011;60547;48.502;8.996;2022-07-22T05:17:15;9.93;;;5.85;;
72524;SDS011;60547;48.502;8.996;2022-07-22T05:19:41;8.52;;;5.70;;
72524;SDS011;60547;48.502;8.996;2022-07-22T05:22:06;8.82;;;6.13;;
72524;SDS011;60547;48.502;8.996;2022-07-22T05:24:32;8.55;;;6.00;;
72524;SDS011;60547;48.502;8.996;2022-07-22T05:26:57;8.18;;;6.00;;
72524;SDS011;60547;48.502;8.996;2022-07-22T05:29:23;9.57;;;6.40;;
72524;SDS011;60547;48.502;8.996;2022-07-22T05:31:48;9.00;;;6.55;;
72524;SDS011;60547;48.502;8.996;2022-07-22T05:34:14;9.60;;;6.82;;
72524;SDS011;60547;48.502;8.996;2022-07-22T05:36:39;10.18;;;6.63;;
72524;SDS011;60547;48.502;8.996;2022-07-22T05:39:05;9.52;;;6.57;;
72524;SDS011;60547;48.502;8.996;2022-07-22T05:41:30;8.90;;;6.45;;
72524;SDS011;60547;48.502;8.996;2022-07-22T05:43:56;10.13;;;6.95;;
72524;SDS011;60547;48.502;8.996;2022-07-22T05:46:21;9.13;;;6.70;;
72524;SDS011;60547;48.502;8.996;2022-07-22T05:48:47;10.38;;;6.53;;
72524;SDS011;60547;48.502;8.996;2022-07-22T05:51:12;9.50;;;5.95;;
72524;SDS011;60547;48.502;8.996;2022-07-22T05:53:39;9.65;;;6.38;;
72524;SDS011;60547;48.502;8.996;2022-07-22T05:56:05;9.52;;;5.97;;
72524;SDS011;60547;48.502;8.996;2022-07-22T05:58:31;10.43;;;6.60;;
72524;SDS011;60547;48.502;8.996;2022-07-22T06:00:56;9.52;;;6.15;;
72524;SDS011;60547;48.502;8.996;2022-07-22T06:03:23;9.25;;;6.15;;
72524;SDS011;60547;48.502;8.996;2022-07-22T06:05:49;9.05;;;6.05;;
72524;SDS011;60547;48.502;8.996;2022-07-22T06:08:14;9.52;;;6.72;;
72524;SDS011;60547;48.502;8.996;2022-07-22T06:10:39;9.40;;;6.85;;
72524;SDS011;60547;48.502;8.996;2022-07-22T06:13:05;9.93;;;6.75;;
72524;SDS011;60547;48.502;8.996;2022-07-22T06:15:30;8.70;;;5.75;;
72524;SDS011;60547;48.502;8.996;2022-07-22T06:17:56;9.95;;;6.95;;
72524;SDS011;60547;48.502;8.996;2022-07-22T06:20:21;9.48;;;6.68;;
72524;SDS011;60547;48.502;8.996;2022-07-22T06:22:46;9.80;;;6.55;;
72524;SDS011;60547;48.502;8.996;2022-07-22T06:25:12;11.82;;;7.00;;
72524;SDS011;60547;48.502;8.996;2022-07-22T06:27:38;9.00;;;6.72;;
72524;SDS011;60547;48.502;8.996;2022-07-22T06:30:03;12.50;;;6.90;;
72524;SDS011;60547;48.502;8.996;2022-07-22T06:32:29;9.38;;;7.05;;
72524;SDS011;60547;48.502;8.996;2022-07-22T06:34:54;10.95;;;6.55;;
72524;SDS011;60547;48.502;8.996;2022-07-22T06:37:20;10.82;;;6.82;;
72524;SDS011;60547;48.502;8.996;2022-07-22T06:39:45;11.85;;;7.80;;
72524;SDS011;60547;48.502;8.996;2022-07-22T06:42:13;11.50;;;7.53;;
72524;SDS011;60547;48.502;8.996;2022-07-22T06:44:38;10.18;;;7.28;;
72524;SDS011;60547;48.502;8.996;2022-07-22T06:47:03;9.30;;;6.25;;
72524;SDS011;60547;48.502;8.996;2022-07-22T06:49:29;10.82;;;7.30;;
72524;SDS011;60547;48.502;8.996;2022-07-22T06:51:54;10.27;;;7.13;;
72524;SDS011;60547;48.502;8.996;2022-07-22T06:54:20;10.13;;;7.20;;
72524;SDS011;60547;48.502;8.996;2022-07-22T06:56:45;10.43;;;7.10;;
72524;SDS011;60547;48.502;8.996;2022-07-22T06:59:11;11.98;;;6.93;;
72524;SDS011;60547;48.502;8.996;2022-07-22T07:01:36;9.32;;;6.72;;
72524;SDS011;60547;48.502;8.996;2022-07-22T07:04:02;9.60;;;6.50;;
72524;SDS011;60547;48.502;8.996;2022-07-22T07:06:28;10.25;;;6.78;;
72524;SDS011;60547;48.502;8.996;2022-07-22T07:08:53;10.52;;;7.30;;
72524;SDS011;60547;48.502;8.996;2022-07-22T07:11:19;9.18;;;6.90;;
72524;SDS011;60547;48.502;8.996;2022-07-22T07:13:44;10.48;;;7.35;;
72524;SDS011;60547;48.502;8.996;2022-07-22T07:16:10;10.00;;;6.40;;
72524;SDS011;60547;48.502;8.996;2022-07-22T07:18:35;9.77;;;6.78;;
72524;SDS011;60547;48.502;8.996;2022-07-22T07:21:01;9.88;;;7.40;;
72524;SDS011;60547;48.502;8.996;2022-07-22T07:23:29;10.80;;;7.00;;
72524;SDS011;60547;48.502;8.996;2022-07-22T07:25:54;12.55;;;7.72;;
72524;SDS011;60547;48.502;8.996;2022-07-22T07:28:20;11.88;;;7.47;;
72524;SDS011;60547;48.502;8.996;2022-07-22T07:30:46;8.27;;;6.18;;
72524;SDS011;60547;48.502;8.996;2022-07-22T07:33:11;11.52;;;7.40;;
72524;SDS011;60547;48.502;8.996;2022-07-22T07:35:37;10.57;;;7.00;;
72524;SDS011;60547;48.502;8.996;2022-07-22T07:38:02;12.30;;;7.10;;
72524;SDS011;60547;48.502;8.996;2022-07-22T07:40:28;9.65;;;6.80;;
72524;SDS011;60547;48.502;8.996;2022-07-22T07:42:54;9.63;;;6.63;;
72524;SDS011;60547;48.502;8.996;2022-07-22T07:45:19;9.05;;;7.00;;
72524;SDS011;60547;48.502;8.996;2022-07-22T07:47:44;10.20;;;7.03;;
72524;SDS011;60547;48.502;8.996;2022-07-22T07:50:10;12.20;;;7.53;;
72524;SDS011;60547;48.502;8.996;2022-07-22T07:52:44;10.95;;;6.97;;
72524;SDS011;60547;48.502;8.996;2022-07-22T07:55:12;9.80;;;7.22;;
72524;SDS011;60547;48.502;8.996;2022-07-22T07:57:38;9.48;;;7.10;;
72524;SDS011;60547;48.502;8.996;2022-07-22T08:00:04;10.85;;;6.97;;
72524;SDS011;60547;48.502;8.996;2022-07-22T08:02:32;11.02;;;7.03;;
72524;SDS011;60547;48.502;8.996;2022-07-22T08:04:58;10.18;;;6.70;;
72524;SDS011;60547;48.502;8.996;2022-07-22T08:07:23;10.70;;;6.97;;
72524;SDS011;60547;48.502;8.996;2022-07-22T08:09:48;10.77;;;7.00;;
72524;SDS011;60547;48.502;8.996;2022-07-22T08:12:14;9.13;;;6.32;;
72524;SDS011;60547;48.502;8.996;2022-07-22T08:14:39;10.50;;;6.70;;
72524;SDS011;60547;48.502;8.996;2022-07-22T08:17:05;9.38;;;5.85;;
72524;SDS011;60547;48.502;8.996;2022-07-22T08:19:30;9.40;;;6.50;;
72524;SDS011;60547;48.502;8.996;2022-07-22T08:21:56;9.15;;;6.47;;
72524;SDS011;60547;48.502;8.996;2022-07-22T08:24:22;8.77;;;6.20;;
72524;SDS011;60547;48.502;8.996;2022-07-22T08:26:47;7.82;;;5.97;;
72524;SDS011;60547;48.502;8.996;2022-07-22T08:29:13;10.50;;;6.50;;
72524;SDS011;60547;48.502;8.996;2022-07-22T08:31:38;9.00;;;6.05;;
72524;SDS011;60547;48.502;8.996;2022-07-22T08:34:04;7.50;;;5.57;;
72524;SDS011;60547;48.502;8.996;2022-07-22T08:36:31;8.35;;;6.07;;
72524;SDS011;60547;48.502;8.996;2022-07-22T08:38:56;9.88;;;5.80;;
72524;SDS011;60547;48.502;8.996;2022-07-22T08:41:22;8.43;;;5.70;;
72524;SDS011;60547;48.502;8.996;2022-07-22T08:43:49;10.70;;;5.68;;
72524;SDS011;60547;48.502;8.996;2022-07-22T08:46:15;7.28;;;5.40;;
72524;SDS011;60547;48.502;8.996;2022-07-22T08:48:40;9.20;;;5.78;;
72524;SDS011;60547;48.502;8.996;2022-07-22T08:51:06;8.80;;;5.82;;
72524;SDS011;60547;48.502;8.996;2022-07-22T08:53:33;8.73;;;5.85;;
72524;SDS011;60547;48.502;8.996;2022-07-22T08:55:59;8.20;;;5.18;;
72524;SDS011;60547;48.502;8.996;2022-07-22T08:58:24;7.93;;;5.20;;
72524;SDS011;60547;48.502;8.996;2022-07-22T09:01:03;9.13;;;6.15;;
72524;SDS011;60547;48.502;8.996;2022-07-22T09:03:45;7.50;;;5.18;;
72524;SDS011;60547;48.502;8.996;2022-07-22T09:06:16;8.40;;;5.45;;
72524;SDS011;60547;48.502;8.996;2022-07-22T09:09:05;8.05;;;5.03;;
72524;SDS011;60547;48.502;8.996;2022-07-22T09:11:30;7.22;;;4.95;;
72524;SDS011;60547;48.502;8.996;2022-07-22T09:13:59;6.93;;;5.03;;
72524;SDS011;60547;48.502;8.996;2022-07-22T09:16:41;9.05;;;5.00;;
72524;SDS011;60547;48.502;8.996;2022-07-22T09:19:10;8.73;;;6.05;;
72524;SDS011;60547;48.502;8.996;2022-07-22T09:21:38;8.60;;;5.10;;
72524;SDS011;60547;48.502;8.996;2022-07-22T09:24:04;7.95;;;4.82;;
72524;SDS011;60547;48.502;8.996;2022-07-22T09:26:32;7.30;;;5.32;;
72524;SDS011;60547;48.502;8.996;2022-07-22T09:28:59;8.98;;;5.15;;
72524;SDS011;60547;48.502;8.996;2022-07-22T09:31:30;7.30;;;5.45;;
72524;SDS011;60547;48.502;8.996;2022-07-22T09:33:57;8.82;;;5.40;;
72524;SDS011;60547;48.502;8.996;2022-07-22T09:36:23;7.00;;;5.15;;
72524;SDS011;60547;48.502;8.996;2022-07-22T09:38:49;7.53;;;5.20;;
72524;SDS011;60547;48.502;8.996;2022-07-22T09:41:15;7.30;;;5.20;;
72524;SDS011;60547;48.502;8.996;2022-07-22T09:43:40;7.22;;;4.95;;
72524;SDS011;60547;48.502;8.996;2022-07-22T09:46:06;7.80;;;5.70;;
72524;SDS011;60547;48.502;8.996;2022-07-22T09:48:32;8.88;;;5.53;;
72524;SDS011;60547;48.502;8.996;2022-07-22T09:50:58;6.43;;;4.97;;
72524;SDS011;60547;48.502;8.996;2022-07-22T09:53:24;8.80;;;5.80;;
72524;SDS011;60547;48.502;8.996;2022-07-22T09:55:54;9.80;;;5.50;;
72524;SDS011;60547;48.502;8.996;2022-07-22T09:58:24;7.95;;;5.68;;
72524;SDS011;60547;48.502;8.996;2022-07-22T10:00:51;6.80;;;5.53;;
72524;SDS011;60547;48.502;8.996;2022-07-22T10:03:18;7.38;;;5.10;;
72524;SDS011;60547;48.502;8.996;2022-07-22T10:05:49;8.55;;;5.55;;
72524;SDS011;60547;48.502;8.996;2022-07-22T10:08:15;8.50;;;5.47;;
72524;SDS011;60547;48.502;8.996;2022-07-22T10:10:42;6.80;;;5.18;;
72524;SDS011;60547;48.502;8.996;2022-07-22T10:13:07;7.05;;;4.75;;
72524;SDS011;60547;48.502;8.996;2022-07-22T10:15:33;10.48;;;4.93;;
72524;SDS011;60547;48.502;8.996;2022-07-22T10:18:01;8.27;;;5.50;;
72524;SDS011;60547;48.502;8.996;2022-07-22T10:20:30;8.27;;;5.63;;
72524;SDS011;60547;48.502;8.996;2022-07-22T10:23:04;6.85;;;5.40;;
72524;SDS011;60547;48.502;8.996;2022-07-22T10:25:32;9.60;;;5.45;;
72524;SDS011;60547;48.502;8.996;2022-07-22T10:30:49;7.25;;;5.30;;
72524;SDS011;60547;48.502;8.996;2022-07-22T10:33:16;8.23;;;5.60;;
72524;SDS011;60547;48.502;8.996;2022-07-22T10:38:20;8.13;;;5.20;;
72524;SDS011;60547;48.502;8.996;2022-07-22T10:40:51;6.82;;;5.25;;
72524;SDS011;60547;48.502;8.996;2022-07-22T10:43:25;6.65;;;5.03;;
72524;SDS011;60547;48.502;8.996;2022-07-22T10:45:53;9.48;;;5.30;;
72524;SDS011;60547;48.502;8.996;2022-07-22T10:51:04;7.78;;;5.03;;
72524;SDS011;60547;48.502;8.996;2022-07-22T10:53:38;6.30;;;5.18;;
72524;SDS011;60547;48.502;8.996;2022-07-22T11:01:04;8.48;;;5.72;;
72524;SDS011;60547;48.502;8.996;2022-07-22T11:03:32;8.05;;;5.28;;
72524;SDS011;60547;48.502;8.996;2022-07-22T11:08:44;7.95;;;5.68;;
72524;SDS011;60547;48.502;8.996;2022-07-22T11:11:11;8.90;;;5.45;;
72524;SDS011;60547;48.502;8.996;2022-07-22T11:13:38;7.15;;;5.05;;
72524;SDS011;60547;48.502;8.996;2022-07-22T11:18:44;7.53;;;5.45;;
72524;SDS011;60547;48.502;8.996;2022-07-22T11:21:10;9.43;;;5.20;;
72524;SDS011;60547;48.502;8.996;2022-07-22T11:23:39;8.02;;;5.15;;
72524;SDS011;60547;48.502;8.996;2022-07-22T11:26:05;7.38;;;5.07;;
72524;SDS011;60547;48.502;8.996;2022-07-22T11:28:38;7.55;;;4.68;;
72524;SDS011;60547;48.502;8.996;2022-07-22T11:31:05;6.43;;;4.80;;
72524;SDS011;60547;48.502;8.996;2022-07-22T11:33:31;5.80;;;4.93;;
72524;SDS011;60547;48.502;8.996;2022-07-22T11:36:00;8.27;;;5.10;;
72524;SDS011;60547;48.502;8.996;2022-07-22T11:38:38;7.32;;;5.53;;
72524;SDS011;60547;48.502;8.996;2022-07-22T11:41:08;6.38;;;4.80;;
72524;SDS011;60547;48.502;8.996;2022-07-22T11:43:52;6.88;;;4.60;;
72524;SDS011;60547;48.502;8.996;2022-07-22T11:46:17;7.47;;;5.05;;
72524;SDS011;60547;48.502;8.996;2022-07-22T11:48:43;6.38;;;4.93;;
72524;SDS011;60547;48.502;8.996;2022-07-22T11:51:10;9.27;;;5.05;;
72524;SDS011;60547;48.502;8.996;2022-07-22T11:53:38;7.82;;;5.22;;
72524;SDS011;60547;48.502;8.996;2022-07-22T11:56:04;7.65;;;5.05;;
72524;SDS011;60547;48.502;8.996;2022-07-22T11:58:39;7.57;;;5.07;;
72524;SDS011;60547;48.502;8.996;2022-07-22T12:01:13;6.05;;;4.93;;
72524;SDS011;60547;48.502;8.996;2022-07-22T12:03:41;7.57;;;4.90;;
72524;SDS011;60547;48.502;8.996;2022-07-22T12:06:11;6.55;;;4.80;;
72524;SDS011;60547;48.502;8.996;2022-07-22T12:08:48;6.63;;;4.43;;
72524;SDS011;60547;48.502;8.996;2022-07-22T12:11:17;6.85;;;5.00;;
72524;SDS011;60547;48.502;8.996;2022-07-22T12:13:45;9.60;;;5.10;;
72524;SDS011;60547;48.502;8.996;2022-07-22T12:16:25;6.80;;;5.05;;
72524;SDS011;60547;48.502;8.996;2022-07-22T12:18:59;5.85;;;4.88;;
72524;SDS011;60547;48.502;8.996;2022-07-22T12:21:34;7.53;;;5.05;;
72524;SDS011;60547;48.502;8.996;2022-07-22T12:24:05;7.85;;;4.90;;
72524;SDS011;60547;48.502;8.996;2022-07-22T12:26:47;6.82;;;5.05;;
72524;SDS011;60547;48.502;8.996;2022-07-22T12:31:45;6.65;;;4.90;;
72524;SDS011;60547;48.502;8.996;2022-07-22T12:34:13;7.00;;;5.10;;
72524;SDS011;60547;48.502;8.996;2022-07-22T12:36:43;6.82;;;5.10;;
72524;SDS011;60547;48.502;8.996;2022-07-22T12:39:19;5.97;;;5.18;;
72524;SDS011;60547;48.502;8.996;2022-07-22T12:41:49;7.57;;;4.78;;
72524;SDS011;60547;48.502;8.996;2022-07-22T12:44:19;6.72;;;5.10;;
72524;SDS011;60547;48.502;8.996;2022-07-22T12:46:48;7.30;;;4.93;;
72524;SDS011;60547;48.502;8.996;2022-07-22T12:49:16;6.78;;;4.85;;
72524;SDS011;60547;48.502;8.996;2022-07-22T12:52:04;6.25;;;4.70;;
72524;SDS011;60547;48.502;8.996;2022-07-22T12:54:32;5.70;;;4.65;;
72524;SDS011;60547;48.502;8.996;2022-07-22T12:56:59;6.35;;;5.07;;
72524;SDS011;60547;48.502;8.996;2022-07-22T12:59:25;7.15;;;4.97;;
72524;SDS011;60547;48.502;8.996;2022-07-22T13:01:50;6.95;;;5.10;;
72524;SDS011;60547;48.502;8.996;2022-07-22T13:04:16;8.43;;;5.00;;
72524;SDS011;60547;48.502;8.996;2022-07-22T13:06:41;7.88;;;4.70;;
72524;SDS011;60547;48.502;8.996;2022-07-22T13:09:07;8.15;;;5.60;;
72524;SDS011;60547;48.502;8.996;2022-07-22T13:11:32;8.10;;;5.13;;
72524;SDS011;60547;48.502;8.996;2022-07-22T13:14:04;6.55;;;4.65;;
72524;SDS011;60547;48.502;8.996;2022-07-22T13:16:29;5.88;;;4.30;;
72524;SDS011;60547;48.502;8.996;2022-07-22T13:18:55;6.35;;;4.95;;
72524;SDS011;60547;48.502;8.996;2022-07-22T13:21:20;6.93;;;4.63;;
72524;SDS011;60547;48.502;8.996;2022-07-22T13:23:45;6.40;;;5.00;;
72524;SDS011;60547;48.502;8.996;2022-07-22T13:26:11;5.95;;;4.72;;
72524;SDS011;60547;48.502;8.996;2022-07-22T13:28:36;7.15;;;5.05;;
72524;SDS011;60547;48.502;8.996;2022-07-22T13:31:01;6.28;;;4.70;;
72524;SDS011;60547;48.502;8.996;2022-07-22T13:33:27;6.80;;;5.00;;
72524;SDS011;60547;48.502;8.996;2022-07-22T13:35:52;7.85;;;4.90;;
72524;SDS011;60547;48.502;8.996;2022-07-22T13:38:18;6.78;;;5.18;;
72524;SDS011;60547;48.502;8.996;2022-07-22T13:40:44;6.75;;;5.07;;
72524;SDS011;60547;48.502;8.996;2022-07-22T13:43:17;6.68;;;4.93;;
72524;SDS011;60547;48.502;8.996;2022-07-22T13:45:43;7.35;;;5.25;;
72524;SDS011;60547;48.502;8.996;2022-07-22T13:48:09;7.80;;;4.78;;
72524;SDS011;60547;48.502;8.996;2022-07-22T13:50:34;7.47;;;4.50;;
72524;SDS011;60547;48.502;8.996;2022-07-22T13:53:00;6.80;;;5.20;;
72524;SDS011;60547;48.502;8.996;2022-07-22T13:55:25;6.88;;;4.93;;
72524;SDS011;60547;48.502;8.996;2022-07-22T13:57:51;6.03;;;4.40;;
72524;SDS011;60547;48.502;8.996;2022-07-22T14:00:18;6.35;;;4.50;;
72524;SDS011;60547;48.502;8.996;2022-07-22T14:02:44;9.15;;;5.13;;
72524;SDS011;60547;48.502;8.996;2022-07-22T14:05:10;6.03;;;4.38;;
72524;SDS011;60547;48.502;8.996;2022-07-22T14:07:36;6.47;;;4.90;;
72524;SDS011;60547;48.502;8.996;2022-07-22T14:10:01;9.27;;;5.03;;
72524;SDS011;60547;48.502;8.996;2022-07-22T14:12:27;7.57;;;4.65;;
72524;SDS011;60547;48.502;8.996;2022-07-22T14:14:53;6.93;;;4.70;;
72524;SDS011;60547;48.502;8.996;2022-07-22T14:17:18;7.80;;;4.65;;
72524;SDS011;60547;48.502;8.996;2022-07-22T14:19:43;5.95;;;4.28;;
72524;SDS011;60547;48.502;8.996;2022-07-22T14:22:09;7.78;;;4.53;;
72524;SDS011;60547;48.502;8.996;2022-07-22T14:24:34;6.78;;;4.95;;
72524;SDS011;60547;48.502;8.996;2022-07-22T14:27:00;6.82;;;4.50;;
72524;SDS011;60547;48.502;8.996;2022-07-22T14:29:25;7.60;;;4.20;;
72524;SDS011;60547;48.502;8.996;2022-07-22T14:31:50;5.70;;;4.60;;
72524;SDS011;60547;48.502;8.996;2022-07-22T14:34:16;5.85;;;4.43;;
72524;SDS011;60547;48.502;8.996;2022-07-22T14:36:44;7.03;;;4.38;;
72524;SDS011;60547;48.502;8.996;2022-07-22T14:39:09;6.63;;;4.70;;
72524;SDS011;60547;48.502;8.996;2022-07-22T14:41:35;5.22;;;4.55;;
72524;SDS011;60547;48.502;8.996;2022-07-22T14:44:01;5.88;;;4.47;;
72524;SDS011;60547;48.502;8.996;2022-07-22T14:46:26;5.57;;;4.45;;
72524;SDS011;60547;48.502;8.996;2022-07-22T14:48:51;6.75;;;4.88;;
72524;SDS011;60547;48.502;8.996;2022-07-22T14:51:20;5.80;;;4.43;;
72524;SDS011;60547;48.502;8.996;2022-07-22T14:53:46;7.97;;;4.68;;
72524;SDS011;60547;48.502;8.996;2022-07-22T14:56:12;6.25;;;4.25;;
72524;SDS011;60547;48.502;8.996;2022-07-22T14:58:37;6.40;;;4.72;;
72524;SDS011;60547;48.502;8.996;2022-07-22T15:01:03;7.15;;;4.97;;
72524;SDS011;60547;48.502;8.996;2022-07-22T15:03:28;7.50;;;4.78;;